createdAt,value
2022-08-27T00:01:23.275Z,76.50
2022-08-27T00:03:50.979Z,76.50
2022-08-27T00:06:21.099Z,76.40
2022-08-27T00:08:49.672Z,76.40
2022-08-27T00:11:19.633Z,76.40
2022-08-27T00:13:47.123Z,76.50
2022-08-27T00:16:16.307Z,76.50
2022-08-27T00:18:47.880Z,76.50
2022-08-27T00:21:16.842Z,76.50
2022-08-27T00:23:43.996Z,76.50
2022-08-27T00:26:12.160Z,76.40
2022-08-27T00:28:39.922Z,76.30
2022-08-27T00:31:08.074Z,76.50
2022-08-27T00:33:40.286Z,76.60
2022-08-27T00:36:08.523Z,76.50
2022-08-27T00:38:37.499Z,76.60
2022-08-27T00:41:09.928Z,76.70
2022-08-27T00:43:57.892Z,76.80
2022-08-27T00:46:28.278Z,77.90
2022-08-27T00:49:02.079Z,76.80
2022-08-27T00:51:30.572Z,76.80
2022-08-27T00:53:59.728Z,76.80
2022-08-27T00:56:31.993Z,76.80
2022-08-27T00:59:01.545Z,76.90
2022-08-27T01:01:31.412Z,77.00
2022-08-27T01:04:02.551Z,77.10
2022-08-27T01:06:35.393Z,77.20
2022-08-27T01:09:09.953Z,77.10
2022-08-27T01:11:38.864Z,77.40
2022-08-27T01:14:06.470Z,77.20
2022-08-27T01:16:45.004Z,77.30
2022-08-27T01:19:26.864Z,77.70
2022-08-27T01:22:05.738Z,77.60
2022-08-27T01:24:45.650Z,77.60
2022-08-27T01:27:18.685Z,77.80
2022-08-27T01:29:46.880Z,77.60
2022-08-27T01:32:28.125Z,77.40
2022-08-27T01:34:55.574Z,77.80
2022-08-27T01:37:24.329Z,77.40
2022-08-27T01:39:54.050Z,77.50
2022-08-27T01:42:31.283Z,77.50
2022-08-27T01:45:12.576Z,77.80
2022-08-27T01:47:59.525Z,77.70
2022-08-27T01:50:32.014Z,78.20
2022-08-27T01:53:04.966Z,78.60
2022-08-27T01:55:33.490Z,78.00
2022-08-27T01:58:00.733Z,78.00
2022-08-27T02:00:32.312Z,78.00
2022-08-27T02:03:00.578Z,78.00
2022-08-27T02:05:28.728Z,78.10
2022-08-27T02:07:56.388Z,78.10
2022-08-27T02:10:28.625Z,78.00
2022-08-27T02:12:56.048Z,78.10
2022-08-27T02:15:24.903Z,78.10
2022-08-27T02:17:52.765Z,78.20
2022-08-27T02:20:23.670Z,78.20
2022-08-27T02:22:55.263Z,78.40
2022-08-27T02:25:22.410Z,78.40
2022-08-27T02:27:50.901Z,78.40
2022-08-27T02:30:22.649Z,78.50
2022-08-27T02:32:52.278Z,78.50
2022-08-27T02:35:22.127Z,78.50
2022-08-27T02:37:53.027Z,78.60
2022-08-27T02:40:24.201Z,78.60
2022-08-27T02:42:52.015Z,78.70
2022-08-27T02:45:20.794Z,78.80
2022-08-27T02:47:54.028Z,78.80
2022-08-27T02:50:21.748Z,78.80
2022-08-27T02:53:04.352Z,78.80
2022-08-27T02:55:35.804Z,78.70
2022-08-27T02:58:29.434Z,78.80
2022-08-27T03:00:57.207Z,78.90
2022-08-27T03:03:24.143Z,79.00
2022-08-27T03:05:53.012Z,79.00
2022-08-27T03:08:20.115Z,79.10
2022-08-27T03:10:47.051Z,79.20
2022-08-27T03:13:13.961Z,79.20
2022-08-27T03:15:40.933Z,79.30
2022-08-27T03:18:20.001Z,79.40
2022-08-27T03:20:54.571Z,79.20
2022-08-27T03:23:25.145Z,79.40
2022-08-27T03:25:58.604Z,79.50
2022-08-27T03:28:30.270Z,79.70
2022-08-27T03:31:01.263Z,79.60
2022-08-27T03:33:31.081Z,79.60
2022-08-27T03:35:58.447Z,79.60
2022-08-27T03:38:26.223Z,79.70
2022-08-27T03:40:53.844Z,79.70
2022-08-27T03:43:21.856Z,79.70
2022-08-27T03:46:00.792Z,79.90
2022-08-27T03:48:30.833Z,79.70
2022-08-27T03:50:58.278Z,79.90
2022-08-27T03:53:26.109Z,79.90
2022-08-27T03:55:53.230Z,79.90
2022-08-27T03:58:20.254Z,79.90
2022-08-27T04:00:47.414Z,80.00
2022-08-27T04:03:15.108Z,80.10
2022-08-27T04:05:44.753Z,80.10
2022-08-27T04:08:13.459Z,80.20
2022-08-27T04:10:42.036Z,80.30
2022-08-27T04:13:08.961Z,80.30
2022-08-27T04:15:40.514Z,80.40
2022-08-27T04:18:10.158Z,80.30
2022-08-27T04:20:37.243Z,80.40
2022-08-27T04:23:05.274Z,80.50
2022-08-27T04:25:32.698Z,80.50
2022-08-27T04:28:01.810Z,80.90
2022-08-27T04:30:28.948Z,80.70
2022-08-27T04:32:55.869Z,80.70
2022-08-27T04:35:23.130Z,80.50
2022-08-27T04:37:50.256Z,80.50
2022-08-27T04:40:17.628Z,80.60
2022-08-27T04:42:44.936Z,80.70
2022-08-27T04:45:12.030Z,80.80
2022-08-27T04:47:39.151Z,81.00
2022-08-27T04:50:07.132Z,81.00
2022-08-27T04:52:40.956Z,80.90
2022-08-27T04:55:09.139Z,81.10
2022-08-27T04:57:37.998Z,81.20
2022-08-27T05:00:07.326Z,81.20
2022-08-27T05:02:34.538Z,81.30
2022-08-27T05:05:01.492Z,81.30
2022-08-27T05:07:28.554Z,81.30
2022-08-27T05:09:55.526Z,81.30
2022-08-27T05:12:23.151Z,81.40
2022-08-27T05:14:50.105Z,81.30
2022-08-27T05:17:17.166Z,81.30
2022-08-27T05:19:44.057Z,81.40
2022-08-27T05:22:10.951Z,81.50
2022-08-27T05:24:37.995Z,81.60
2022-08-27T05:27:05.370Z,81.70
2022-08-27T05:29:32.392Z,81.70
2022-08-27T05:31:59.418Z,81.70
2022-08-27T05:34:26.919Z,81.80
2022-08-27T05:36:54.579Z,81.80
2022-08-27T05:39:21.725Z,81.90
2022-08-27T05:41:48.744Z,81.90
2022-08-27T05:44:40.522Z,81.90
2022-08-27T05:47:04.710Z,82.00
2022-08-27T05:49:32.679Z,82.00
2022-08-27T05:51:59.598Z,82.00
2022-08-27T05:54:26.852Z,82.20
2022-08-27T05:56:53.979Z,82.20
2022-08-27T05:59:39.274Z,82.30
2022-08-27T06:02:07.013Z,82.30
2022-08-27T06:04:34.707Z,82.30
2022-08-27T06:07:01.845Z,82.40
2022-08-27T06:09:30.281Z,82.40
2022-08-27T06:11:58.952Z,82.40
2022-08-27T06:14:26.798Z,82.40
2022-08-27T06:16:53.914Z,82.50
2022-08-27T06:19:21.118Z,82.60
2022-08-27T06:22:00.873Z,82.60
2022-08-27T06:24:36.359Z,82.60
2022-08-27T06:27:03.512Z,82.70
2022-08-27T06:29:30.605Z,82.80
2022-08-27T06:31:57.627Z,82.80
2022-08-27T06:34:24.774Z,82.80
2022-08-27T06:36:53.349Z,83.00
2022-08-27T06:39:21.618Z,83.10
2022-08-27T06:41:50.284Z,83.10
2022-08-27T06:44:21.483Z,83.10
2022-08-27T06:46:48.492Z,83.20
2022-08-27T06:49:15.540Z,83.20
2022-08-27T06:51:46.832Z,83.20
2022-08-27T06:54:15.490Z,83.40
2022-08-27T06:56:44.545Z,83.20
2022-08-27T06:59:16.774Z,83.40
2022-08-27T07:01:47.312Z,83.50
2022-08-27T07:04:18.389Z,83.40
2022-08-27T07:06:45.482Z,83.80
2022-08-27T07:09:12.502Z,83.20
2022-08-27T07:11:39.731Z,83.10
2022-08-27T07:14:08.485Z,83.10
2022-08-27T07:16:36.311Z,83.10
2022-08-27T07:19:05.529Z,83.10
2022-08-27T07:21:34.774Z,83.20
2022-08-27T07:24:05.038Z,83.20
2022-08-27T07:26:35.340Z,83.30
2022-08-27T07:29:04.861Z,83.40
2022-08-27T07:31:32.397Z,83.60
2022-08-27T07:33:59.370Z,83.60
2022-08-27T07:36:26.727Z,83.80
2022-08-27T07:39:00.697Z,84.00
2022-08-27T07:41:31.878Z,84.10
2022-08-27T07:44:19.104Z,84.30
2022-08-27T07:46:48.965Z,84.50
2022-08-27T07:49:19.972Z,84.60
2022-08-27T07:51:47.784Z,84.50
2022-08-27T07:54:15.661Z,84.50
2022-08-27T07:56:54.614Z,84.40
2022-08-27T07:59:27.370Z,84.50
2022-08-27T08:01:56.390Z,84.30
2022-08-27T08:04:24.361Z,84.70
2022-08-27T08:06:51.701Z,84.90
2022-08-27T08:09:20.238Z,85.80
2022-08-27T08:11:47.226Z,85.00
2022-08-27T08:14:14.279Z,85.00
2022-08-27T08:16:41.468Z,85.30
2022-08-27T08:19:09.333Z,85.30
2022-08-27T08:21:36.807Z,85.30
2022-08-27T08:24:04.408Z,85.30
2022-08-27T08:26:31.610Z,85.30
2022-08-27T08:29:00.728Z,85.20
2022-08-27T08:31:27.705Z,85.30
2022-08-27T08:33:55.036Z,85.30
2022-08-27T08:36:21.947Z,85.50
2022-08-27T08:38:50.532Z,85.50
2022-08-27T08:41:41.601Z,85.70
2022-08-27T08:44:16.706Z,86.00
2022-08-27T08:46:54.469Z,85.90
2022-08-27T08:49:54.970Z,85.90
2022-08-27T08:52:54.576Z,86.40
2022-08-27T08:55:43.051Z,86.20
2022-08-27T08:58:36.416Z,85.90
2022-08-27T09:01:07.327Z,86.10
2022-08-27T09:03:40.821Z,86.10
2022-08-27T09:06:14.500Z,86.30
2022-08-27T09:08:43.491Z,84.90
2022-08-27T09:11:43.316Z,83.20
2022-08-27T09:14:46.379Z,79.00
2022-08-27T09:17:13.866Z,80.90
2022-08-27T09:19:41.689Z,81.80
2022-08-27T09:22:14.458Z,82.10
2022-08-27T09:24:47.023Z,80.50
2022-08-27T09:27:15.179Z,79.40
2022-08-27T09:29:53.911Z,78.40
2022-08-27T09:32:31.506Z,79.30
2022-08-27T09:35:01.516Z,79.90
2022-08-27T09:37:34.552Z,77.70
2022-08-27T09:40:42.765Z,76.70
2022-08-27T09:43:16.037Z,74.20
2022-08-27T09:45:52.894Z,76.10
2022-08-27T09:48:25.705Z,74.80
2022-08-27T09:50:59.970Z,73.80
2022-08-27T09:53:35.605Z,73.30
2022-08-27T09:56:04.276Z,72.90
2022-08-27T09:58:42.651Z,73.20
2022-08-27T10:01:27.336Z,74.30
2022-08-27T10:04:13.525Z,74.70
2022-08-27T10:06:48.772Z,72.50
2022-08-27T10:09:35.505Z,73.80
2022-08-27T10:12:34.724Z,73.10
2022-08-27T10:15:05.533Z,72.60
2022-08-27T10:17:53.176Z,72.10
2022-08-27T10:20:30.251Z,70.00
2022-08-27T10:23:10.233Z,70.30
2022-08-27T10:25:40.888Z,72.70
2022-08-27T10:28:44.671Z,71.50
2022-08-27T10:31:27.183Z,69.60
2022-08-27T10:34:45.226Z,71.20
2022-08-27T10:37:47.495Z,73.10
2022-08-27T10:40:34.567Z,71.70
2022-08-27T10:43:20.274Z,71.60
2022-08-27T10:45:56.195Z,69.30
2022-08-27T10:48:40.037Z,70.60
2022-08-27T10:51:37.678Z,69.10
2022-08-27T10:54:27.389Z,70.70
2022-08-27T10:57:28.540Z,68.20
2022-08-27T11:00:16.395Z,69.90
2022-08-27T11:02:56.744Z,67.40
2022-08-27T11:05:31.523Z,70.10
2022-08-27T11:08:03.490Z,70.10
2022-08-27T11:10:34.123Z,68.30
2022-08-27T11:13:13.355Z,66.20
2022-08-27T11:15:44.728Z,66.20
2022-08-27T11:18:35.455Z,65.90
2022-08-27T11:21:34.606Z,65.80
2022-08-27T11:24:23.336Z,66.90
2022-08-27T11:26:55.813Z,65.90
2022-08-27T11:29:30.589Z,67.80
2022-08-27T11:32:09.938Z,68.80
2022-08-27T11:34:57.107Z,68.90
2022-08-27T11:37:45.501Z,67.30
2022-08-27T11:40:44.640Z,66.70
2022-08-27T11:43:16.528Z,66.30
2022-08-27T11:45:59.310Z,66.70
2022-08-27T11:48:41.988Z,65.70
2022-08-27T11:51:15.996Z,67.60
2022-08-27T11:53:59.311Z,68.00
2022-08-27T11:56:29.132Z,66.80
2022-08-27T11:59:08.059Z,65.70
2022-08-27T12:01:35.147Z,65.30
2022-08-27T12:04:19.318Z,66.30
2022-08-27T12:07:01.491Z,64.60
2022-08-27T12:09:42.851Z,63.10
2022-08-27T12:12:30.141Z,64.70
2022-08-27T12:15:31.305Z,64.10
2022-08-27T12:18:34.051Z,65.20
2022-08-27T12:21:21.197Z,61.90
2022-08-27T12:24:19.657Z,63.30
2022-08-27T12:27:13.374Z,62.00
2022-08-27T12:30:07.017Z,60.30
2022-08-27T12:32:36.655Z,61.20
2022-08-27T12:35:19.250Z,60.70
2022-08-27T12:38:14.737Z,59.90
2022-08-27T12:40:46.381Z,60.40
2022-08-27T12:43:24.770Z,59.00
2022-08-27T12:46:08.524Z,58.30
2022-08-27T12:48:45.124Z,57.80
2022-08-27T12:51:25.864Z,56.90
2022-08-27T12:54:30.177Z,56.60
2022-08-27T12:57:22.333Z,54.80
2022-08-27T13:00:10.169Z,54.30
2022-08-27T13:03:07.834Z,54.90
2022-08-27T13:05:44.259Z,52.50
2022-08-27T13:08:20.307Z,53.80
2022-08-27T13:10:47.734Z,55.70
2022-08-27T13:13:24.038Z,55.00
2022-08-27T13:15:58.633Z,54.00
2022-08-27T13:18:30.077Z,52.90
2022-08-27T13:21:09.037Z,52.40
2022-08-27T13:23:36.010Z,50.60
2022-08-27T13:26:11.883Z,50.70
2022-08-27T13:28:48.851Z,49.40
2022-08-27T13:31:17.645Z,49.80
2022-08-27T13:33:44.994Z,50.10
2022-08-27T13:36:12.394Z,50.70
2022-08-27T13:38:49.900Z,51.60
2022-08-27T13:41:37.714Z,51.20
2022-08-27T13:44:15.132Z,50.80
2022-08-27T13:47:00.091Z,51.10
2022-08-27T13:49:31.098Z,50.90
2022-08-27T13:52:13.802Z,51.30
2022-08-27T13:54:46.327Z,50.80
2022-08-27T13:57:30.343Z,51.20
2022-08-27T14:00:16.268Z,52.10
2022-08-27T14:02:55.488Z,53.10
2022-08-27T14:05:23.381Z,53.90
2022-08-27T14:07:54.447Z,54.90
2022-08-27T14:10:40.867Z,55.10
2022-08-27T14:13:20.965Z,55.80
2022-08-27T14:15:50.767Z,56.00
2022-08-27T14:18:57.278Z,56.40
2022-08-27T14:21:19.128Z,56.90
2022-08-27T14:23:46.306Z,57.50
2022-08-27T14:26:13.980Z,58.30
2022-08-27T14:28:42.642Z,58.20
2022-08-27T14:31:09.786Z,58.10
2022-08-27T14:33:36.923Z,57.80
2022-08-27T14:36:04.714Z,57.60
2022-08-27T14:38:33.930Z,57.20
2022-08-27T14:41:01.037Z,57.20
2022-08-27T14:43:28.073Z,56.90
2022-08-27T14:45:57.189Z,56.30
2022-08-27T14:48:32.175Z,55.80
2022-08-27T14:51:02.279Z,55.90
2022-08-27T14:53:29.604Z,55.70
2022-08-27T14:55:58.970Z,55.40
2022-08-27T14:58:27.346Z,55.30
2022-08-27T15:00:56.481Z,55.40
2022-08-27T15:03:26.365Z,55.30
2022-08-27T15:05:55.059Z,55.40
2022-08-27T15:08:27.681Z,55.80
2022-08-27T15:10:57.990Z,55.80
2022-08-27T15:13:25.605Z,56.00
2022-08-27T15:15:52.845Z,56.10
2022-08-27T15:18:39.891Z,57.10
2022-08-27T15:21:07.208Z,56.30
2022-08-27T15:23:34.319Z,56.30
2022-08-27T15:26:01.345Z,56.60
2022-08-27T15:28:28.530Z,56.70
2022-08-27T15:30:55.624Z,56.50
2022-08-27T15:33:23.197Z,56.40
2022-08-27T15:35:50.410Z,56.60
2022-08-27T15:38:17.415Z,56.50
2022-08-27T15:40:44.598Z,56.60
2022-08-27T15:43:12.840Z,56.70
2022-08-27T15:45:39.888Z,57.00
2022-08-27T15:48:07.275Z,57.40
2022-08-27T15:50:34.967Z,57.60
2022-08-27T15:53:07.045Z,57.80
2022-08-27T15:55:38.772Z,58.00
2022-08-27T15:58:07.076Z,58.10
2022-08-27T16:00:35.921Z,58.40
2022-08-27T16:03:08.252Z,58.70
2022-08-27T16:05:38.232Z,58.90
2022-08-27T16:08:06.566Z,59.10
2022-08-27T16:10:34.301Z,59.30
2022-08-27T16:13:02.011Z,59.40
2022-08-27T16:15:29.674Z,59.70
2022-08-27T16:17:59.769Z,59.80
2022-08-27T16:20:29.014Z,60.00
2022-08-27T16:22:56.138Z,60.30
